Time;durP1;ratioP1;P1;durP2;ratioP2;P2;SDS_P1;SDS_P2;PMS_P1;PMS_P2;Temp;Humidity;BMP_temperature;BMP_pressure;BME280_temperature;BME280_humidity;BME280_pressure;Samples;Min_cycle;Max_cycle;Signal;HPM_P1;HPM_P2
2023/12/02 00:01:37;;;;;;;2.90;2.73;;;7.00;99.90;;;;;;5090996;28;20654;-82
2023/12/02 00:04:03;;;;;;;0.30;0.20;;;7.00;99.90;;;;;;5090638;28;20319;-81
2023/12/02 00:06:29;;;;;;;0.30;0.20;;;7.00;99.90;;;;;;5091866;28;20183;-80
2023/12/02 00:08:54;;;;;;;0.30;0.20;;;7.00;99.90;;;;;;5090685;28;20352;-72
2023/12/02 00:11:20;;;;;;;0.30;0.20;;;7.00;99.90;;;;;;5092077;28;20195;-72
2023/12/02 00:13:46;;;;;;;0.30;0.20;;;7.00;99.90;;;;;;5091915;28;20245;-72
2023/12/02 00:16:12;;;;;;;0.30;0.20;;;7.00;99.90;;;;;;5091494;28;20612;-81
2023/12/02 00:18:38;;;;;;;0.30;0.20;;;7.00;99.90;;;;;;5090296;28;20192;-80
2023/12/02 00:21:04;;;;;;;0.30;0.20;;;6.90;99.90;;;;;;5091631;28;20403;-80
2023/12/02 00:23:29;;;;;;;0.30;0.20;;;6.90;99.90;;;;;;5091365;28;20192;-73
2023/12/02 00:25:55;;;;;;;0.30;0.20;;;6.90;99.90;;;;;;5090259;28;20177;-71
2023/12/02 00:28:20;;;;;;;0.33;0.20;;;6.90;99.90;;;;;;5090115;28;20645;-80
2023/12/02 00:30:46;;;;;;;0.30;0.20;;;6.90;99.90;;;;;;5091195;28;20228;-71
2023/12/02 00:33:13;;;;;;;0.30;0.20;;;6.90;99.90;;;;;;5090075;28;20197;-72
2023/12/02 00:35:38;;;;;;;0.30;0.20;;;6.90;99.90;;;;;;5091689;28;20243;-72
2023/12/02 00:38:04;;;;;;;0.30;0.20;;;6.90;99.90;;;;;;5090985;28;20216;-80
2023/12/02 00:40:30;;;;;;;0.30;0.20;;;6.90;99.90;;;;;;5090340;28;20337;-72
2023/12/02 00:42:55;;;;;;;0.30;0.20;;;6.90;99.90;;;;;;5091697;28;20192;-72
2023/12/02 00:45:21;;;;;;;0.30;0.20;;;6.90;99.90;;;;;;5091252;28;20192;-81
2023/12/02 00:47:47;;;;;;;0.30;0.20;;;6.90;99.90;;;;;;5089642;28;20172;-80
2023/12/02 00:50:13;;;;;;;0.30;0.20;;;6.90;99.90;;;;;;5091485;28;20655;-72
2023/12/02 00:52:38;;;;;;;3.40;3.30;;;6.90;99.90;;;;;;5091061;28;20401;-81
2023/12/02 00:55:05;;;;;;;0.30;0.20;;;6.90;99.90;;;;;;5091542;28;20654;-81
2023/12/02 00:57:30;;;;;;;0.30;0.20;;;6.90;99.90;;;;;;5090899;28;20734;-81
2023/12/02 00:59:56;;;;;;;0.30;0.20;;;6.90;99.90;;;;;;5089747;28;20282;-80
2023/12/02 01:02:22;;;;;;;0.30;0.20;;;6.80;99.90;;;;;;5091156;28;20172;-73
2023/12/02 01:04:47;;;;;;;0.30;0.20;;;6.90;99.90;;;;;;5090581;28;20610;-72
2023/12/02 01:07:13;;;;;;;0.30;0.20;;;6.80;99.90;;;;;;5089519;28;20176;-73
2023/12/02 01:09:39;;;;;;;0.30;0.20;;;6.80;99.90;;;;;;5089519;28;20192;-72
2023/12/02 01:12:04;;;;;;;0.30;0.20;;;6.80;99.90;;;;;;5090769;28;20263;-78
2023/12/02 01:14:30;;;;;;;0.30;0.20;;;6.80;99.90;;;;;;5090583;28;20192;-72
2023/12/02 01:16:56;;;;;;;0.30;0.30;;;6.80;99.90;;;;;;5089195;28;20240;-72
2023/12/02 01:19:21;;;;;;;0.30;0.20;;;6.80;99.90;;;;;;5090923;28;20184;-81
2023/12/02 01:21:47;;;;;;;0.30;0.20;;;6.70;99.90;;;;;;5089332;28;20347;-82
2023/12/02 01:24:14;;;;;;;0.30;0.20;;;6.70;99.90;;;;;;5089078;28;20196;-74
2023/12/02 01:26:40;;;;;;;0.30;0.30;;;6.70;99.90;;;;;;5090661;28;20482;-82
2023/12/02 01:29:05;;;;;;;0.30;0.20;;;6.70;99.90;;;;;;5090401;28;20188;-74
2023/12/02 01:31:31;;;;;;;0.30;0.20;;;6.70;99.90;;;;;;5088426;28;20219;-73
2023/12/02 01:33:57;;;;;;;0.30;0.20;;;6.70;99.90;;;;;;5090073;28;20196;-82
2023/12/02 01:36:22;;;;;;;0.30;0.20;;;6.70;99.90;;;;;;5090565;28;20561;-78
2023/12/02 01:38:48;;;;;;;0.30;0.20;;;6.70;99.90;;;;;;5090029;28;20765;-74
2023/12/02 01:41:14;;;;;;;0.40;0.30;;;6.70;99.90;;;;;;5089025;28;20181;-82
2023/12/02 01:43:39;;;;;;;0.50;0.50;;;6.70;99.90;;;;;;5089082;28;20192;-74
2023/12/02 01:46:05;;;;;;;0.30;0.20;;;6.70;99.90;;;;;;5088606;28;20181;-74
2023/12/02 01:48:34;;;;;;;0.30;0.20;;;6.70;99.90;;;;;;5088871;28;20703;-83
2023/12/02 01:51:00;;;;;;;8.25;7.82;;;6.70;99.90;;;;;;5088817;28;20734;-82
2023/12/02 01:53:26;;;;;;;0.30;0.20;;;6.70;99.90;;;;;;5088595;28;20287;-83
2023/12/02 01:55:52;;;;;;;0.30;0.20;;;6.60;99.90;;;;;;5089914;28;20827;-84
2023/12/02 01:58:19;;;;;;;0.30;0.20;;;6.60;99.90;;;;;;5088364;28;20521;-74
2023/12/02 02:00:45;;;;;;;0.30;0.20;;;6.60;99.90;;;;;;5088892;28;20180;-83
2023/12/02 02:03:10;;;;;;;0.30;0.20;;;6.60;99.90;;;;;;5089824;28;20599;-74
2023/12/02 02:05:36;;;;;;;0.30;0.20;;;6.60;99.90;;;;;;5090176;28;20417;-83
2023/12/02 02:08:02;;;;;;;0.30;0.20;;;6.60;99.90;;;;;;5089638;28;20191;-83
2023/12/02 02:10:28;;;;;;;0.30;0.20;;;6.60;99.90;;;;;;5088759;28;20279;-83
2023/12/02 02:12:54;;;;;;;0.30;0.20;;;6.60;99.90;;;;;;5088467;28;20736;-82
2023/12/02 02:15:20;;;;;;;0.30;0.20;;;6.60;99.90;;;;;;5088720;28;20831;-74
2023/12/02 02:17:45;;;;;;;0.30;0.23;;;6.60;99.90;;;;;;5089298;28;20492;-82
2023/12/02 02:20:11;;;;;;;0.30;0.20;;;6.50;99.90;;;;;;5088753;28;20283;-83
2023/12/02 02:22:37;;;;;;;0.30;0.20;;;6.50;99.90;;;;;;5089453;28;20176;-74
2023/12/02 02:25:02;;;;;;;0.30;0.20;;;6.50;99.90;;;;;;5088429;28;20421;-74
2023/12/02 02:27:28;;;;;;;0.30;0.20;;;6.50;99.90;;;;;;5089340;28;20252;-82
2023/12/02 02:29:54;;;;;;;0.30;0.20;;;6.50;99.90;;;;;;5089593;28;20407;-83
2023/12/02 02:32:19;;;;;;;0.30;0.20;;;6.50;99.90;;;;;;5090004;28;20225;-73
2023/12/02 02:34:46;;;;;;;0.30;0.30;;;6.50;99.90;;;;;;5088723;28;20674;-81
2023/12/02 02:37:11;;;;;;;0.30;0.20;;;6.50;99.90;;;;;;5089707;28;20200;-72
2023/12/02 02:39:37;;;;;;;0.30;0.20;;;6.50;99.90;;;;;;5089685;28;20249;-72
2023/12/02 02:42:06;;;;;;;0.30;0.20;;;6.50;99.90;;;;;;5089740;28;20180;-72
2023/12/02 02:44:39;;;;;;;0.30;0.20;;;6.50;99.90;;;;;;5087158;28;20394;-81
2023/12/02 02:47:05;;;;;;;0.30;0.20;;;6.50;99.90;;;;;;5089089;28;20597;-80
2023/12/02 02:49:30;;;;;;;0.30;0.20;;;6.50;99.90;;;;;;5089354;28;20195;-81
2023/12/02 02:51:57;;;;;;;0.30;0.20;;;6.50;99.90;;;;;;5089975;28;20626;-72
2023/12/02 02:54:23;;;;;;;0.30;0.20;;;6.40;99.90;;;;;;5089495;28;20432;-72
2023/12/02 02:56:49;;;;;;;0.30;0.20;;;6.40;99.90;;;;;;5087916;28;20677;-80
2023/12/02 02:59:15;;;;;;;0.30;0.20;;;6.40;99.90;;;;;;5090689;28;20207;-72
2023/12/02 03:01:49;;;;;;;0.30;0.20;;;6.40;99.90;;;;;;5093698;28;20177;-80
2023/12/02 03:04:14;;;;;;;0.30;0.20;;;6.40;99.90;;;;;;5093145;28;20207;-80
2023/12/02 03:06:40;;;;;;;0.67;0.67;;;6.40;99.90;;;;;;5091624;28;20184;-72
2023/12/02 03:09:07;;;;;;;0.30;0.20;;;6.40;99.90;;;;;;5075081;28;20208;-71
2023/12/02 03:11:33;;;;;;;0.30;0.20;;;6.40;99.90;;;;;;5091863;28;20834;-76
2023/12/02 03:13:59;;;;;;;0.30;0.20;;;6.40;99.90;;;;;;5093171;28;20197;-72
2023/12/02 03:16:24;;;;;;;0.30;0.20;;;6.40;99.90;;;;;;5092586;28;20239;-80
2023/12/02 03:18:50;;;;;;;0.30;0.20;;;6.40;99.90;;;;;;5091787;28;20412;-80
2023/12/02 03:21:15;;;;;;;0.30;0.20;;;6.30;99.90;;;;;;5091450;28;20208;-72
2023/12/02 03:23:41;;;;;;;0.30;0.20;;;6.30;99.90;;;;;;5092689;28;20200;-80
2023/12/02 03:26:07;;;;;;;0.30;0.20;;;6.30;99.90;;;;;;5091341;28;20180;-81
2023/12/02 03:28:33;;;;;;;0.30;0.20;;;6.30;99.90;;;;;;5091741;28;20193;-80
2023/12/02 03:31:00;;;;;;;0.30;0.20;;;6.30;99.90;;;;;;5091216;28;20456;-72
2023/12/02 03:33:26;;;;;;;0.30;0.30;;;6.30;99.90;;;;;;5092770;28;20676;-72
2023/12/02 03:35:52;;;;;;;0.30;0.20;;;6.30;99.90;;;;;;5090223;28;20247;-81
2023/12/02 03:38:17;;;;;;;0.30;0.20;;;6.30;99.90;;;;;;5092769;28;20340;-71
2023/12/02 03:40:43;;;;;;;0.30;0.20;;;6.30;99.90;;;;;;5092426;28;20187;-80
2023/12/02 03:43:09;;;;;;;0.30;0.20;;;6.20;99.90;;;;;;5092616;28;20191;-76
2023/12/02 03:45:34;;;;;;;0.30;0.20;;;6.20;99.90;;;;;;5092485;28;20282;-81
2023/12/02 03:48:00;;;;;;;0.30;0.27;;;6.20;99.90;;;;;;5092416;28;20557;-80
2023/12/02 03:50:26;;;;;;;0.30;0.20;;;6.20;99.90;;;;;;5092536;28;20265;-81
2023/12/02 03:52:52;;;;;;;0.30;0.20;;;6.20;99.90;;;;;;5092788;28;20172;-72
2023/12/02 03:55:18;;;;;;;0.30;0.20;;;6.10;99.90;;;;;;5092276;28;20417;-80
2023/12/02 03:57:44;;;;;;;0.30;0.20;;;6.10;99.90;;;;;;5092244;28;20215;-81
2023/12/02 04:00:13;;;;;;;0.30;0.20;;;6.20;99.90;;;;;;5092093;28;20661;-81
2023/12/02 04:02:40;;;;;;;0.30;0.25;;;6.10;99.90;;;;;;5092103;28;20433;-75
2023/12/02 04:05:10;;;;;;;0.30;0.20;;;6.10;99.90;;;;;;5092169;28;20196;-72
2023/12/02 04:07:36;;;;;;;0.30;0.20;;;6.20;99.90;;;;;;5090639;28;20181;-72
2023/12/02 04:10:03;;;;;;;0.30;0.20;;;6.10;99.90;;;;;;5091683;28;20176;-81
2023/12/02 04:12:33;;;;;;;0.30;0.20;;;6.10;99.90;;;;;;5090737;28;20181;-72
2023/12/02 04:14:59;;;;;;;0.30;0.20;;;6.10;99.90;;;;;;5090258;28;20625;-73
2023/12/02 04:17:24;;;;;;;0.30;0.20;;;6.10;99.90;;;;;;5090444;28;20236;-80
2023/12/02 04:19:50;;;;;;;0.30;0.20;;;6.10;99.90;;;;;;5091571;28;20188;-72
2023/12/02 04:22:16;;;;;;;0.30;0.20;;;6.10;99.90;;;;;;5092125;28;20172;-80
2023/12/02 04:24:42;;;;;;;0.30;0.20;;;6.10;99.90;;;;;;5090109;28;20563;-72
2023/12/02 04:27:08;;;;;;;0.30;0.20;;;6.10;99.90;;;;;;5091676;28;20251;-75
2023/12/02 04:29:40;;;;;;;0.30;0.20;;;6.10;99.90;;;;;;5091857;28;20662;-72
2023/12/02 04:32:06;;;;;;;0.30;0.20;;;6.10;99.90;;;;;;5092112;28;20631;-72
2023/12/02 04:34:32;;;;;;;0.30;0.20;;;6.10;99.90;;;;;;5091475;28;20750;-72
2023/12/02 04:36:57;;;;;;;0.30;0.20;;;6.00;99.90;;;;;;5091422;28;20302;-80
2023/12/02 04:39:25;;;;;;;0.30;0.20;;;6.00;99.90;;;;;;5089259;28;20408;-71
2023/12/02 04:41:51;;;;;;;0.30;0.20;;;6.00;99.90;;;;;;5089845;28;20431;-80
2023/12/02 04:44:16;;;;;;;0.30;0.20;;;6.00;99.90;;;;;;5091278;28;20189;-80
2023/12/02 04:46:42;;;;;;;0.30;0.27;;;6.00;99.90;;;;;;5091685;28;20347;-80
2023/12/02 04:49:08;;;;;;;0.30;0.20;;;6.00;99.90;;;;;;5091274;28;20657;-72
2023/12/02 04:51:34;;;;;;;0.30;0.20;;;6.00;99.90;;;;;;5090144;28;20418;-71
2023/12/02 04:53:59;;;;;;;0.30;0.20;;;6.00;99.90;;;;;;5091447;28;20199;-72
2023/12/02 04:56:25;;;;;;;0.30;0.20;;;6.00;99.90;;;;;;5091187;28;20219;-72
2023/12/02 04:58:51;;;;;;;0.30;0.20;;;6.00;99.90;;;;;;5091319;28;20197;-72
2023/12/02 05:01:17;;;;;;;0.30;0.20;;;6.00;99.90;;;;;;5089385;28;20684;-72
2023/12/02 05:03:43;;;;;;;0.30;0.20;;;6.00;99.90;;;;;;5091492;28;20649;-81
2023/12/02 05:06:14;;;;;;;0.30;0.30;;;6.00;99.90;;;;;;5089411;28;20184;-72
2023/12/02 05:08:40;;;;;;;0.30;0.20;;;6.00;99.90;;;;;;5091035;28;20395;-72
2023/12/02 05:11:06;;;;;;;0.30;0.20;;;6.00;99.90;;;;;;5091004;28;20256;-80
2023/12/02 05:13:31;;;;;;;0.40;0.30;;;6.00;99.90;;;;;;5090971;28;20563;-72
2023/12/02 05:15:57;;;;;;;0.30;0.20;;;6.00;99.90;;;;;;5090309;28;20228;-80
2023/12/02 05:18:23;;;;;;;0.30;0.20;;;6.00;99.90;;;;;;5091334;28;20811;-72
2023/12/02 05:20:49;;;;;;;0.30;0.20;;;6.00;99.90;;;;;;5089921;28;20545;-72
2023/12/02 05:23:15;;;;;;;0.30;0.20;;;6.00;99.90;;;;;;5090641;28;20271;-72
2023/12/02 05:25:40;;;;;;;0.30;0.20;;;6.00;99.90;;;;;;5090465;28;20325;-80
2023/12/02 05:28:06;;;;;;;0.30;0.20;;;6.00;99.90;;;;;;5089296;28;20442;-81
2023/12/02 05:30:33;;;;;;;0.30;0.20;;;5.90;99.90;;;;;;5088854;28;20231;-81
2023/12/02 05:32:59;;;;;;;0.30;0.20;;;5.90;99.90;;;;;;5089249;28;20223;-78
2023/12/02 05:35:24;;;;;;;0.30;0.20;;;6.00;99.90;;;;;;5090547;28;20231;-80
2023/12/02 05:37:50;;;;;;;0.30;0.20;;;6.00;99.90;;;;;;5089162;28;20187;-71
2023/12/02 05:40:17;;;;;;;0.30;0.20;;;6.00;99.90;;;;;;5087920;28;20641;-72
2023/12/02 05:42:43;;;;;;;0.30;0.20;;;6.00;99.90;;;;;;5088540;28;20176;-80
2023/12/02 05:45:09;;;;;;;0.30;0.20;;;6.00;99.90;;;;;;5088994;28;20553;-80
2023/12/02 05:47:35;;;;;;;0.30;0.20;;;6.00;99.90;;;;;;5088564;28;20405;-72
2023/12/02 05:50:01;;;;;;;0.30;0.20;;;6.00;99.90;;;;;;5088955;28;20188;-71
2023/12/02 05:52:26;;;;;;;0.30;0.20;;;6.00;99.90;;;;;;5090394;28;20183;-80
2023/12/02 05:54:52;;;;;;;0.30;0.20;;;6.00;99.90;;;;;;5090030;28;20352;-72
2023/12/02 05:57:18;;;;;;;0.30;0.20;;;6.00;99.90;;;;;;5089904;28;20279;-77
2023/12/02 05:59:44;;;;;;;0.30;0.20;;;6.00;99.90;;;;;;5089820;28;20418;-72
2023/12/02 06:02:09;;;;;;;0.30;0.20;;;6.00;99.90;;;;;;5088560;28;20660;-75
2023/12/02 06:04:35;;;;;;;0.30;0.20;;;6.00;99.90;;;;;;5088953;28;20392;-72
2023/12/02 06:07:01;;;;;;;0.30;0.20;;;6.00;99.90;;;;;;5088556;28;20388;-72
2023/12/02 06:09:26;;;;;;;0.30;0.30;;;6.00;99.90;;;;;;5089757;28;20227;-80
2023/12/02 06:11:52;;;;;;;0.30;0.20;;;5.90;99.90;;;;;;5088554;28;20275;-72
2023/12/02 06:14:17;;;;;;;0.30;0.20;;;6.00;99.90;;;;;;5088307;28;20195;-72
2023/12/02 06:16:43;;;;;;;0.30;0.20;;;6.00;99.90;;;;;;5089547;28;20283;-80
2023/12/02 06:19:09;;;;;;;0.30;0.20;;;6.00;99.90;;;;;;5089791;28;20677;-73
2023/12/02 06:21:34;;;;;;;0.30;0.20;;;5.90;99.90;;;;;;5090152;28;20558;-80
2023/12/02 06:24:00;;;;;;;0.30;0.20;;;6.00;99.90;;;;;;5089939;28;20196;-80
2023/12/02 06:26:26;;;;;;;0.30;0.20;;;6.00;99.90;;;;;;5089059;28;20177;-81
2023/12/02 06:28:51;;;;;;;0.30;0.20;;;6.00;99.90;;;;;;5089765;28;20189;-72
2023/12/02 06:31:17;;;;;;;0.30;0.20;;;6.00;99.90;;;;;;5089585;28;20626;-72
2023/12/02 06:33:43;;;;;;;0.30;0.20;;;6.00;99.90;;;;;;5093352;28;20758;-80
2023/12/02 06:36:09;;;;;;;0.30;0.20;;;6.00;99.90;;;;;;5093406;28;20216;-72
2023/12/02 06:38:38;;;;;;;0.30;0.20;;;6.00;99.90;;;;;;5091931;28;20429;-72
2023/12/02 06:41:04;;;;;;;0.30;0.20;;;6.10;99.90;;;;;;5092271;28;20769;-71
2023/12/02 06:43:30;;;;;;;0.30;0.20;;;6.10;99.90;;;;;;5092171;28;20241;-71
2023/12/02 06:45:56;;;;;;;0.30;0.30;;;6.10;99.90;;;;;;5092183;28;20195;-80
2023/12/02 06:48:21;;;;;;;0.30;0.30;;;6.10;99.90;;;;;;5093574;28;20184;-80
2023/12/02 06:50:47;;;;;;;0.30;0.20;;;6.10;99.90;;;;;;5092111;28;20451;-81
2023/12/02 06:53:15;;;;;;;0.30;0.20;;;6.10;99.90;;;;;;5093480;28;20736;-72
2023/12/02 06:55:41;;;;;;;0.30;0.20;;;6.10;99.90;;;;;;5092021;28;20212;-72
2023/12/02 06:58:07;;;;;;;0.30;0.20;;;6.10;99.90;;;;;;5091955;28;20223;-72
2023/12/02 07:00:33;;;;;;;0.30;0.20;;;6.10;99.90;;;;;;5091904;28;20180;-81
2023/12/02 07:02:59;;;;;;;0.30;0.20;;;6.10;99.90;;;;;;5093159;28;20493;-77
2023/12/02 07:05:26;;;;;;;0.30;0.20;;;6.10;99.90;;;;;;5093514;28;20175;-72
2023/12/02 07:07:51;;;;;;;0.30;0.20;;;6.10;99.90;;;;;;5092860;28;20259;-72
2023/12/02 07:10:18;;;;;;;0.30;0.20;;;6.10;99.90;;;;;;5093031;28;20232;-73
2023/12/02 07:12:44;;;;;;;0.30;0.20;;;6.10;99.90;;;;;;5090999;28;20380;-76
2023/12/02 07:15:10;;;;;;;0.30;0.20;;;6.10;99.90;;;;;;5090421;28;20251;-81
2023/12/02 07:17:35;;;;;;;0.30;0.20;;;6.20;99.90;;;;;;5091221;28;20463;-73
2023/12/02 07:20:01;;;;;;;0.30;0.20;;;6.20;99.90;;;;;;5092934;28;20181;-72
2023/12/02 07:22:27;;;;;;;0.30;0.20;;;6.20;99.90;;;;;;5093615;28;20621;-75
2023/12/02 07:24:53;;;;;;;0.30;0.20;;;6.30;99.90;;;;;;5092476;28;20929;-72
2023/12/02 07:27:18;;;;;;;0.30;0.20;;;6.30;99.90;;;;;;5093059;28;20172;-73
2023/12/02 07:29:44;;;;;;;0.30;0.20;;;6.30;99.90;;;;;;5091219;28;20200;-73
2023/12/02 07:32:10;;;;;;;0.30;0.20;;;6.40;99.90;;;;;;5092727;28;20282;-81
2023/12/02 07:34:35;;;;;;;0.30;0.20;;;6.50;99.90;;;;;;5092782;28;20665;-73
2023/12/02 07:37:02;;;;;;;0.30;0.20;;;6.50;99.90;;;;;;5092575;28;20626;-73
2023/12/02 07:39:28;;;;;;;0.30;0.20;;;6.60;99.90;;;;;;5090517;28;20437;-82
2023/12/02 07:41:53;;;;;;;0.30;0.20;;;6.80;99.90;;;;;;5092898;28;20177;-81
2023/12/02 07:44:19;;;;;;;0.30;0.20;;;7.10;99.90;;;;;;5091946;28;20675;-75
2023/12/02 07:46:45;;;;;;;0.30;0.20;;;7.50;99.90;;;;;;5091368;28;20187;-81
2023/12/02 07:49:10;;;;;;;0.30;0.20;;;7.70;99.90;;;;;;5092217;28;20595;-82
2023/12/02 07:51:36;;;;;;;8.37;7.97;;;8.00;99.90;;;;;;5092966;28;20177;-81
2023/12/02 07:54:02;;;;;;;0.30;0.20;;;8.40;99.90;;;;;;5092326;28;20200;-81
2023/12/02 07:56:29;;;;;;;0.47;0.40;;;8.60;99.90;;;;;;5092005;28;20676;-81
2023/12/02 07:58:55;;;;;;;1.15;1.10;;;8.80;99.90;;;;;;5092342;28;20185;-81
2023/12/02 08:01:21;;;;;;;0.30;0.20;;;8.90;99.90;;;;;;5090053;28;20192;-73
2023/12/02 08:03:47;;;;;;;1.77;1.67;;;8.90;99.90;;;;;;5088658;28;20196;-73
2023/12/02 08:06:13;;;;;;;0.30;0.20;;;9.00;99.90;;;;;;5088683;28;20183;-78
2023/12/02 08:08:38;;;;;;;0.90;0.90;;;9.00;99.90;;;;;;5090319;28;20696;-81
2023/12/02 08:11:05;;;;;;;1.03;0.97;;;9.10;99.90;;;;;;5090122;28;20177;-73
2023/12/02 08:13:31;;;;;;;0.30;0.30;;;9.20;99.90;;;;;;5090523;28;20239;-73
2023/12/02 08:15:56;;;;;;;0.30;0.30;;;9.40;99.90;;;;;;5088280;28;20242;-73
2023/12/02 08:18:22;;;;;;;0.30;0.20;;;9.70;99.90;;;;;;5089341;28;20196;-73
2023/12/02 08:20:48;;;;;;;0.30;0.30;;;10.10;99.90;;;;;;5091928;28;20180;-73
2023/12/02 08:23:14;;;;;;;3.17;2.87;;;10.40;99.90;;;;;;5089377;28;20718;-81
2023/12/02 08:25:39;;;;;;;0.30;0.20;;;10.60;99.90;;;;;;5089702;28;20832;-82
2023/12/02 08:28:05;;;;;;;2.50;2.40;;;10.70;99.90;;;;;;5089716;28;20192;-74
2023/12/02 08:30:30;;;;;;;0.30;0.20;;;10.60;99.90;;;;;;5073247;28;20775;-82
2023/12/02 08:32:56;;;;;;;0.30;0.20;;;10.50;99.90;;;;;;5068589;28;20272;-74
2023/12/02 08:35:22;;;;;;;0.30;0.20;;;10.40;99.90;;;;;;5070746;28;20565;-74
2023/12/02 08:37:48;;;;;;;0.30;0.20;;;10.40;99.90;;;;;;5083490;28;20227;-74
2023/12/02 08:40:14;;;;;;;1.23;1.15;;;10.30;99.90;;;;;;5088470;28;20408;-82
2023/12/02 08:42:39;;;;;;;0.30;0.20;;;10.20;99.90;;;;;;5085965;28;20177;-74
2023/12/02 08:45:06;;;;;;;0.30;0.20;;;10.10;99.90;;;;;;5085082;28;20259;-74
2023/12/02 08:47:32;;;;;;;0.30;0.30;;;10.10;99.90;;;;;;5090808;28;20212;-74
2023/12/02 08:49:58;;;;;;;0.30;0.20;;;10.00;99.90;;;;;;5089265;28;20208;-82
2023/12/02 08:52:23;;;;;;;0.30;0.20;;;10.00;99.90;;;;;;5090339;28;20543;-74
2023/12/02 08:54:49;;;;;;;0.40;0.37;;;10.00;99.90;;;;;;5088809;28;20184;-83
2023/12/02 08:57:15;;;;;;;2.40;2.30;;;10.00;99.90;;;;;;5088843;28;20208;-73
2023/12/02 08:59:40;;;;;;;0.30;0.20;;;9.90;99.90;;;;;;5091061;28;20198;-83
2023/12/02 09:02:07;;;;;;;0.30;0.20;;;9.80;99.90;;;;;;5089732;28;20176;-82
2023/12/02 09:04:33;;;;;;;0.30;0.20;;;9.80;99.90;;;;;;5087657;28;20219;-83
2023/12/02 09:06:59;;;;;;;0.30;0.20;;;9.70;99.90;;;;;;5089778;28;20184;-73
2023/12/02 09:09:25;;;;;;;0.30;0.20;;;9.60;99.90;;;;;;5086276;28;20231;-72
2023/12/02 09:11:51;;;;;;;0.30;0.20;;;9.60;99.90;;;;;;5087750;28;20421;-83
2023/12/02 09:14:17;;;;;;;1.60;1.60;;;9.60;99.90;;;;;;5087217;28;20436;-73
2023/12/02 09:16:47;;;;;;;0.30;0.20;;;9.60;99.90;;;;;;5088719;28;20244;-82
2023/12/02 09:19:47;;;;;;;0.30;0.20;;;9.50;99.90;;;;;;5086778;28;20200;-82
2023/12/02 09:22:48;;;;;;;0.30;0.20;;;9.50;99.90;;;;;;5075047;28;20253;-82
2023/12/02 09:25:35;;;;;;;0.30;0.20;;;9.50;99.90;;;;;;5085361;28;21401;-82
2023/12/02 09:28:07;;;;;;;16.13;15.20;;;9.60;99.90;;;;;;5090089;28;20211;-73
2023/12/02 09:30:34;;;;;;;1.23;1.23;;;9.70;99.90;;;;;;5083188;28;20184;-81
2023/12/02 09:33:00;;;;;;;1.48;1.48;;;9.90;99.90;;;;;;5089274;28;20343;-72
2023/12/02 09:35:26;;;;;;;0.30;0.30;;;10.00;99.90;;;;;;5078493;28;20205;-72
2023/12/02 09:37:54;;;;;;;0.30;0.30;;;10.30;99.90;;;;;;5102974;28;20204;-82
2023/12/02 09:40:23;;;;;;;0.30;0.20;;;10.50;99.90;;;;;;5085724;28;20256;-82
2023/12/02 09:43:03;;;;;;;0.30;0.20;;;10.70;99.90;;;;;;5088168;28;20679;-73
2023/12/02 09:45:35;;;;;;;0.30;0.20;;;10.90;99.90;;;;;;5085383;28;20180;-73
2023/12/02 09:48:23;;;;;;;0.40;0.40;;;11.00;99.90;;;;;;5087665;28;20211;-73
2023/12/02 09:51:02;;;;;;;0.30;0.30;;;11.10;99.90;;;;;;5088421;28;20177;-72
2023/12/02 09:53:47;;;;;;;0.30;0.20;;;11.30;99.90;;;;;;5090549;28;20604;-72
2023/12/02 09:56:19;;;;;;;2.05;1.85;;;11.50;99.90;;;;;;5084271;28;20226;-72
2023/12/02 09:58:46;;;;;;;0.30;0.20;;;11.60;99.90;;;;;;5083567;28;20225;-82
2023/12/02 10:01:42;;;;;;;0.40;0.40;;;11.80;99.90;;;;;;5080605;28;20684;-73
2023/12/02 10:04:17;;;;;;;0.73;0.73;;;12.10;99.90;;;;;;5080835;28;20216;-73
2023/12/02 10:07:01;;;;;;;0.30;0.20;;;12.30;99.90;;;;;;5080273;28;20267;-73
2023/12/02 10:09:29;;;;;;;0.30;0.20;;;12.40;99.90;;;;;;5078989;28;20209;-81
2023/12/02 10:12:24;;;;;;;0.55;0.55;;;12.60;99.90;;;;;;5085795;28;20185;-73
2023/12/02 10:15:06;;;;;;;0.40;0.30;;;12.60;99.90;;;;;;5077189;28;20658;-80
2023/12/02 10:17:45;;;;;;;0.30;0.20;;;12.70;99.90;;;;;;5086482;28;21241;-73
2023/12/02 10:20:14;;;;;;;2.42;1.50;;;12.70;99.90;;;;;;5102312;28;20532;-73
2023/12/02 10:22:48;;;;;;;0.87;0.83;;;12.70;99.90;;;;;;5084611;28;20188;-72
2023/12/02 10:25:32;;;;;;;0.30;0.20;;;12.80;99.90;;;;;;5083527;28;20410;-72
2023/12/02 10:28:11;;;;;;;0.70;0.70;;;12.70;99.90;;;;;;5081493;28;20436;-73
2023/12/02 10:30:44;;;;;;;1.63;1.60;;;12.60;99.90;;;;;;5084379;28;20483;-72
2023/12/02 10:33:20;;;;;;;0.50;0.50;;;12.70;99.90;;;;;;5084470;28;20449;-72
2023/12/02 10:35:47;;;;;;;0.63;0.63;;;12.70;99.90;;;;;;5073977;28;20448;-73
2023/12/02 10:38:18;;;;;;;0.30;0.20;;;12.70;99.90;;;;;;5085765;28;20437;-80
2023/12/02 10:40:55;;;;;;;0.93;0.93;;;12.70;99.90;;;;;;5086378;28;20441;-80
2023/12/02 10:43:41;;;;;;;0.30;0.20;;;12.70;99.90;;;;;;5087824;28;20666;-73
2023/12/02 10:46:08;;;;;;;0.30;0.20;;;12.70;99.90;;;;;;5089667;28;20523;-73
2023/12/02 10:48:36;;;;;;;0.30;0.20;;;12.60;99.90;;;;;;5086189;28;21416;-80
2023/12/02 10:51:04;;;;;;;0.50;0.50;;;12.60;99.90;;;;;;5089343;28;20413;-74
2023/12/02 10:53:32;;;;;;;0.77;0.77;;;12.70;99.90;;;;;;5087349;28;20488;-80
2023/12/02 10:56:05;;;;;;;0.30;0.20;;;12.70;99.90;;;;;;5086983;28;20196;-74
2023/12/02 10:58:32;;;;;;;0.30;0.30;;;12.70;99.90;;;;;;5088491;28;20216;-80
2023/12/02 11:01:08;;;;;;;0.30;0.27;;;12.70;99.90;;;;;;5089009;28;20409;-79
2023/12/02 11:03:51;;;;;;;0.50;0.50;;;12.70;99.90;;;;;;5087923;28;20444;-74
2023/12/02 11:06:36;;;;;;;0.30;0.20;;;12.70;99.90;;;;;;5086468;28;21206;-79
2023/12/02 11:09:17;;;;;;;0.30;0.20;;;12.80;99.90;;;;;;5089031;28;20434;-79
2023/12/02 11:12:19;;;;;;;0.40;0.40;;;12.90;99.90;;;;;;5087327;28;20772;-73
2023/12/02 11:14:53;;;;;;;0.30;0.20;;;13.00;99.90;;;;;;5066328;28;20445;-74
2023/12/02 11:17:34;;;;;;;0.30;0.30;;;13.00;99.90;;;;;;5085045;28;20831;-74
2023/12/02 11:20:11;;;;;;;0.30;0.30;;;13.10;99.90;;;;;;5090893;28;21018;-73
2023/12/02 11:22:44;;;;;;;0.30;0.20;;;13.10;99.90;;;;;;5092394;28;20490;-79
2023/12/02 11:25:28;;;;;;;0.30;0.20;;;13.10;99.90;;;;;;5090920;28;20435;-74
2023/12/02 11:28:12;;;;;;;0.30;0.20;;;13.10;99.90;;;;;;5091527;28;20810;-74
2023/12/02 11:30:47;;;;;;;0.50;0.50;;;13.00;99.90;;;;;;5092666;28;20424;-74
2023/12/02 11:33:23;;;;;;;0.30;0.20;;;12.90;99.90;;;;;;5090535;28;20455;-73
2023/12/02 11:35:55;;;;;;;0.50;0.50;;;12.90;99.90;;;;;;5090006;28;20437;-74
2023/12/02 11:38:22;;;;;;;0.30;0.20;;;12.80;99.90;;;;;;5089650;28;20534;-73
2023/12/02 11:40:54;;;;;;;1.23;1.23;;;12.80;99.90;;;;;;5090406;28;20428;-80
2023/12/02 11:43:46;;;;;;;0.30;0.20;;;12.70;99.90;;;;;;5090474;28;20440;-73
2023/12/02 11:46:18;;;;;;;0.30;0.20;;;12.70;99.90;;;;;;5088572;28;20429;-80
2023/12/02 11:48:50;;;;;;;1.27;1.17;;;12.70;99.90;;;;;;5073404;28;20445;-75
2023/12/02 11:51:44;;;;;;;0.63;0.63;;;12.70;99.90;;;;;;5077630;28;20433;-75
2023/12/02 11:54:42;;;;;;;0.30;0.20;;;12.70;99.90;;;;;;5081105;28;20455;-80
2023/12/02 11:57:24;;;;;;;2.70;2.50;;;12.70;99.90;;;;;;5087977;28;20555;-75
2023/12/02 12:00:13;;;;;;;0.30;0.20;;;12.60;99.90;;;;;;5090297;28;20428;-80
2023/12/02 12:03:04;;;;;;;0.93;0.93;;;12.60;99.90;;;;;;5087301;28;20672;-80
2023/12/02 12:05:53;;;;;;;0.40;0.30;;;12.50;99.90;;;;;;5086170;28;20399;-80
2023/12/02 12:08:22;;;;;;;0.30;0.20;;;12.40;99.90;;;;;;5090226;28;20464;-79
2023/12/02 12:10:51;;;;;;;0.30;0.30;;;12.40;99.90;;;;;;5091556;28;20520;-80
2023/12/02 12:13:21;;;;;;;0.40;0.20;;;12.30;99.90;;;;;;5091061;28;20196;-75
2023/12/02 12:15:47;;;;;;;2.25;2.15;;;12.20;99.90;;;;;;5090535;28;20220;-80
2023/12/02 12:18:13;;;;;;;0.50;0.50;;;12.10;99.90;;;;;;5087855;28;20200;-80
2023/12/02 12:20:42;;;;;;;0.30;0.20;;;12.00;99.90;;;;;;5089084;28;20184;-80
2023/12/02 12:23:08;;;;;;;0.30;0.20;;;11.90;99.90;;;;;;5087074;28;20492;-74
2023/12/02 12:25:35;;;;;;;0.30;0.20;;;11.90;99.90;;;;;;5084599;28;20209;-80
2023/12/02 12:28:05;;;;;;;0.30;0.20;;;11.80;99.90;;;;;;5088824;28;20283;-80
2023/12/02 12:30:45;;;;;;;0.73;0.73;;;11.70;99.90;;;;;;5089941;28;20287;-74
2023/12/02 12:33:17;;;;;;;0.30;0.20;;;11.70;99.90;;;;;;5086477;28;20394;-80
2023/12/02 12:35:43;;;;;;;0.30;0.22;;;11.60;99.90;;;;;;5082334;28;20263;-74
2023/12/02 12:38:09;;;;;;;0.30;0.20;;;11.50;99.90;;;;;;5085939;28;20287;-75
2023/12/02 12:40:36;;;;;;;1.30;1.30;;;11.50;99.90;;;;;;5085325;28;20177;-74
2023/12/02 12:43:03;;;;;;;0.30;0.20;;;11.40;99.90;;;;;;5100540;28;20204;-74
2023/12/02 12:45:32;;;;;;;0.30;0.20;;;11.50;99.90;;;;;;5087591;28;20263;-75
2023/12/02 12:47:59;;;;;;;1.00;1.00;;;11.40;99.90;;;;;;5089651;28;20349;-74
2023/12/02 12:50:33;;;;;;;0.40;0.20;;;11.40;99.90;;;;;;5077271;28;20264;-74
2023/12/02 12:53:08;;;;;;;3.80;2.47;;;11.30;99.90;;;;;;5086947;28;20204;-80
2023/12/02 12:55:38;;;;;;;0.30;0.20;;;11.30;99.90;;;;;;5083648;28;20187;-80
2023/12/02 12:58:11;;;;;;;0.30;0.20;;;11.30;99.90;;;;;;5087400;28;20263;-74
2023/12/02 13:00:39;;;;;;;2.08;1.88;;;11.20;99.90;;;;;;5087486;28;20188;-74